sensor_id;sensor_type;location;lat;lon;timestamp;P1;durP1;ratioP1;P2;durP2;ratioP2
37527;SDS011;23372;52.050;4.810;2022-12-18T00:00:41;129.20;;;39.10;;
37527;SDS011;23372;52.050;4.810;2022-12-18T00:03:07;115.60;;;37.73;;
37527;SDS011;23372;52.050;4.810;2022-12-18T00:05:33;132.77;;;42.73;;
37527;SDS011;23372;52.050;4.810;2022-12-18T00:07:59;155.50;;;41.90;;
37527;SDS011;23372;52.050;4.810;2022-12-18T00:10:24;136.50;;;43.13;;
37527;SDS011;23372;52.050;4.810;2022-12-18T00:12:50;150.17;;;43.07;;
37527;SDS011;23372;52.050;4.810;2022-12-18T00:15:15;140.53;;;40.63;;
37527;SDS011;23372;52.050;4.810;2022-12-18T00:17:41;144.30;;;40.53;;
37527;SDS011;23372;52.050;4.810;2022-12-18T00:20:07;141.97;;;45.27;;
37527;SDS011;23372;52.050;4.810;2022-12-18T00:22:33;134.27;;;42.07;;
37527;SDS011;23372;52.050;4.810;2022-12-18T00:24:58;134.83;;;42.00;;
37527;SDS011;23372;52.050;4.810;2022-12-18T00:27:24;184.27;;;43.53;;
37527;SDS011;23372;52.050;4.810;2022-12-18T00:29:49;182.00;;;42.20;;
37527;SDS011;23372;52.050;4.810;2022-12-18T00:32:15;157.73;;;39.97;;
37527;SDS011;23372;52.050;4.810;2022-12-18T00:34:41;212.73;;;43.73;;
37527;SDS011;23372;52.050;4.810;2022-12-18T00:37:06;146.93;;;37.37;;
37527;SDS011;23372;52.050;4.810;2022-12-18T00:39:32;112.23;;;38.27;;
37527;SDS011;23372;52.050;4.810;2022-12-18T00:41:58;126.50;;;36.43;;
37527;SDS011;23372;52.050;4.810;2022-12-18T00:44:42;124.63;;;36.40;;
37527;SDS011;23372;52.050;4.810;2022-12-18T00:47:07;146.10;;;38.27;;
37527;SDS011;23372;52.050;4.810;2022-12-18T00:49:33;181.73;;;43.33;;
37527;SDS011;23372;52.050;4.810;2022-12-18T00:51:58;130.43;;;38.97;;
37527;SDS011;23372;52.050;4.810;2022-12-18T00:54:24;104.83;;;35.47;;
37527;SDS011;23372;52.050;4.810;2022-12-18T00:56:49;136.00;;;42.87;;
37527;SDS011;23372;52.050;4.810;2022-12-18T00:59:15;148.60;;;44.63;;
37527;SDS011;23372;52.050;4.810;2022-12-18T01:01:42;147.07;;;43.73;;
37527;SDS011;23372;52.050;4.810;2022-12-18T01:04:08;93.57;;;29.27;;
37527;SDS011;23372;52.050;4.810;2022-12-18T01:06:33;128.43;;;38.70;;
37527;SDS011;23372;52.050;4.810;2022-12-18T01:08:59;128.03;;;42.33;;
37527;SDS011;23372;52.050;4.810;2022-12-18T01:11:25;137.43;;;41.83;;
37527;SDS011;23372;52.050;4.810;2022-12-18T01:13:51;172.73;;;43.77;;
37527;SDS011;23372;52.050;4.810;2022-12-18T01:16:18;159.53;;;42.77;;
37527;SDS011;23372;52.050;4.810;2022-12-18T01:18:44;139.80;;;39.93;;
37527;SDS011;23372;52.050;4.810;2022-12-18T01:21:11;123.47;;;41.47;;
37527;SDS011;23372;52.050;4.810;2022-12-18T01:23:38;138.57;;;43.67;;
37527;SDS011;23372;52.050;4.810;2022-12-18T01:26:05;120.67;;;39.83;;
37527;SDS011;23372;52.050;4.810;2022-12-18T01:28:41;129.00;;;38.73;;
37527;SDS011;23372;52.050;4.810;2022-12-18T01:31:12;134.20;;;37.57;;
37527;SDS011;23372;52.050;4.810;2022-12-18T01:33:39;112.87;;;37.57;;
37527;SDS011;23372;52.050;4.810;2022-12-18T01:36:05;119.13;;;40.70;;
37527;SDS011;23372;52.050;4.810;2022-12-18T01:38:30;194.07;;;48.67;;
37527;SDS011;23372;52.050;4.810;2022-12-18T01:40:57;125.23;;;36.93;;
37527;SDS011;23372;52.050;4.810;2022-12-18T01:43:40;116.37;;;35.03;;
37527;SDS011;23372;52.050;4.810;2022-12-18T01:46:26;107.23;;;34.80;;
37527;SDS011;23372;52.050;4.810;2022-12-18T01:48:56;98.37;;;33.13;;
37527;SDS011;23372;52.050;4.810;2022-12-18T01:51:24;133.03;;;36.43;;
37527;SDS011;23372;52.050;4.810;2022-12-18T01:53:52;126.40;;;36.60;;
37527;SDS011;23372;52.050;4.810;2022-12-18T01:56:18;150.07;;;39.17;;
37527;SDS011;23372;52.050;4.810;2022-12-18T01:58:56;142.30;;;40.53;;
37527;SDS011;23372;52.050;4.810;2022-12-18T02:01:26;130.77;;;38.30;;
37527;SDS011;23372;52.050;4.810;2022-12-18T02:03:52;109.67;;;33.57;;
37527;SDS011;23372;52.050;4.810;2022-12-18T02:06:34;111.03;;;37.20;;
37527;SDS011;23372;52.050;4.810;2022-12-18T02:09:09;106.70;;;36.33;;
37527;SDS011;23372;52.050;4.810;2022-12-18T02:11:49;106.57;;;35.07;;
37527;SDS011;23372;52.050;4.810;2022-12-18T02:14:34;133.10;;;35.90;;
37527;SDS011;23372;52.050;4.810;2022-12-18T02:17:16;158.87;;;41.47;;
37527;SDS011;23372;52.050;4.810;2022-12-18T02:20:05;140.13;;;36.77;;
37527;SDS011;23372;52.050;4.810;2022-12-18T02:28:22;112.60;;;35.13;;
37527;SDS011;23372;52.050;4.810;2022-12-18T02:30:52;110.73;;;34.47;;
37527;SDS011;23372;52.050;4.810;2022-12-18T02:33:25;103.63;;;34.57;;
37527;SDS011;23372;52.050;4.810;2022-12-18T02:35:53;120.50;;;37.40;;
37527;SDS011;23372;52.050;4.810;2022-12-18T02:38:21;101.80;;;35.40;;
37527;SDS011;23372;52.050;4.810;2022-12-18T02:40:48;140.70;;;41.13;;
37527;SDS011;23372;52.050;4.810;2022-12-18T02:43:16;103.83;;;37.93;;
37527;SDS011;23372;52.050;4.810;2022-12-18T02:45:49;90.93;;;34.13;;
37527;SDS011;23372;52.050;4.810;2022-12-18T02:48:24;92.57;;;34.77;;
37527;SDS011;23372;52.050;4.810;2022-12-18T02:50:59;130.67;;;36.47;;
37527;SDS011;23372;52.050;4.810;2022-12-18T02:53:35;104.27;;;35.87;;
37527;SDS011;23372;52.050;4.810;2022-12-18T02:56:10;105.17;;;36.57;;
37527;SDS011;23372;52.050;4.810;2022-12-18T02:59:01;121.33;;;37.83;;
37527;SDS011;23372;52.050;4.810;2022-12-18T03:04:12;136.07;;;38.33;;
37527;SDS011;23372;52.050;4.810;2022-12-18T03:06:47;143.83;;;34.07;;
37527;SDS011;23372;52.050;4.810;2022-12-18T03:09:19;133.00;;;35.37;;
37527;SDS011;23372;52.050;4.810;2022-12-18T03:11:52;128.13;;;36.13;;
37527;SDS011;23372;52.050;4.810;2022-12-18T03:14:40;124.60;;;38.37;;
37527;SDS011;23372;52.050;4.810;2022-12-18T03:17:09;113.97;;;39.93;;
37527;SDS011;23372;52.050;4.810;2022-12-18T03:19:41;117.73;;;41.97;;
37527;SDS011;23372;52.050;4.810;2022-12-18T03:22:08;112.03;;;38.13;;
37527;SDS011;23372;52.050;4.810;2022-12-18T03:24:35;103.97;;;37.50;;
37527;SDS011;23372;52.050;4.810;2022-12-18T03:27:05;121.57;;;39.90;;
37527;SDS011;23372;52.050;4.810;2022-12-18T03:32:08;163.57;;;42.83;;
37527;SDS011;23372;52.050;4.810;2022-12-18T03:34:43;130.87;;;41.50;;
37527;SDS011;23372;52.050;4.810;2022-12-18T03:37:14;130.67;;;41.03;;
37527;SDS011;23372;52.050;4.810;2022-12-18T03:39:39;141.40;;;44.30;;
37527;SDS011;23372;52.050;4.810;2022-12-18T03:42:16;129.30;;;41.67;;
37527;SDS011;23372;52.050;4.810;2022-12-18T03:47:52;130.60;;;40.73;;
37527;SDS011;23372;52.050;4.810;2022-12-18T03:55:32;120.00;;;39.00;;
37527;SDS011;23372;52.050;4.810;2022-12-18T03:58:01;114.83;;;40.37;;
37527;SDS011;23372;52.050;4.810;2022-12-18T04:00:29;123.77;;;39.03;;
37527;SDS011;23372;52.050;4.810;2022-12-18T04:02:56;107.53;;;36.60;;
37527;SDS011;23372;52.050;4.810;2022-12-18T04:05:24;110.33;;;36.63;;
37527;SDS011;23372;52.050;4.810;2022-12-18T04:07:53;107.40;;;35.47;;
37527;SDS011;23372;52.050;4.810;2022-12-18T04:10:21;108.17;;;36.17;;
37527;SDS011;23372;52.050;4.810;2022-12-18T04:12:46;105.93;;;35.80;;
37527;SDS011;23372;52.050;4.810;2022-12-18T04:15:12;98.20;;;35.03;;
37527;SDS011;23372;52.050;4.810;2022-12-18T04:17:39;92.40;;;34.20;;
37527;SDS011;23372;52.050;4.810;2022-12-18T04:20:12;98.33;;;35.77;;
37527;SDS011;23372;52.050;4.810;2022-12-18T04:22:38;84.43;;;33.23;;
37527;SDS011;23372;52.050;4.810;2022-12-18T04:25:03;87.73;;;32.63;;
37527;SDS011;23372;52.050;4.810;2022-12-18T04:27:29;90.97;;;32.10;;
37527;SDS011;23372;52.050;4.810;2022-12-18T04:29:55;88.70;;;32.57;;
37527;SDS011;23372;52.050;4.810;2022-12-18T04:32:20;89.47;;;31.60;;
37527;SDS011;23372;52.050;4.810;2022-12-18T04:34:46;90.33;;;31.97;;
37527;SDS011;23372;52.050;4.810;2022-12-18T04:37:12;87.80;;;32.40;;
37527;SDS011;23372;52.050;4.810;2022-12-18T04:39:37;88.83;;;32.50;;
37527;SDS011;23372;52.050;4.810;2022-12-18T04:42:03;85.47;;;30.53;;
37527;SDS011;23372;52.050;4.810;2022-12-18T04:44:28;83.03;;;31.07;;
37527;SDS011;23372;52.050;4.810;2022-12-18T04:46:54;77.17;;;31.80;;
37527;SDS011;23372;52.050;4.810;2022-12-18T04:49:20;82.77;;;29.57;;
37527;SDS011;23372;52.050;4.810;2022-12-18T04:51:46;78.03;;;29.03;;
37527;SDS011;23372;52.050;4.810;2022-12-18T04:54:11;78.73;;;28.47;;
37527;SDS011;23372;52.050;4.810;2022-12-18T04:56:37;74.43;;;28.53;;
37527;SDS011;23372;52.050;4.810;2022-12-18T04:59:03;74.40;;;29.30;;
37527;SDS011;23372;52.050;4.810;2022-12-18T05:01:28;70.47;;;27.80;;
37527;SDS011;23372;52.050;4.810;2022-12-18T05:03:54;72.20;;;28.73;;
37527;SDS011;23372;52.050;4.810;2022-12-18T05:06:19;71.43;;;27.17;;
37527;SDS011;23372;52.050;4.810;2022-12-18T05:08:45;66.60;;;27.20;;
37527;SDS011;23372;52.050;4.810;2022-12-18T05:11:12;65.00;;;27.80;;
37527;SDS011;23372;52.050;4.810;2022-12-18T05:13:41;65.63;;;28.53;;
37527;SDS011;23372;52.050;4.810;2022-12-18T05:16:07;72.67;;;27.63;;
37527;SDS011;23372;52.050;4.810;2022-12-18T05:18:33;67.97;;;26.27;;
37527;SDS011;23372;52.050;4.810;2022-12-18T05:20:59;65.07;;;27.03;;
37527;SDS011;23372;52.050;4.810;2022-12-18T05:23:25;60.47;;;24.40;;
37527;SDS011;23372;52.050;4.810;2022-12-18T05:25:55;60.50;;;25.00;;
37527;SDS011;23372;52.050;4.810;2022-12-18T05:28:23;79.73;;;27.17;;
37527;SDS011;23372;52.050;4.810;2022-12-18T05:30:50;62.97;;;25.17;;
37527;SDS011;23372;52.050;4.810;2022-12-18T05:33:16;60.37;;;25.00;;
37527;SDS011;23372;52.050;4.810;2022-12-18T05:35:43;64.33;;;25.47;;
37527;SDS011;23372;52.050;4.810;2022-12-18T05:38:09;68.00;;;26.57;;
37527;SDS011;23372;52.050;4.810;2022-12-18T05:40:35;67.77;;;25.27;;
37527;SDS011;23372;52.050;4.810;2022-12-18T05:43:04;54.50;;;25.20;;
37527;SDS011;23372;52.050;4.810;2022-12-18T05:45:29;55.73;;;23.10;;
37527;SDS011;23372;52.050;4.810;2022-12-18T05:47:55;61.97;;;25.70;;
37527;SDS011;23372;52.050;4.810;2022-12-18T05:50:20;53.10;;;23.30;;
37527;SDS011;23372;52.050;4.810;2022-12-18T05:52:46;66.20;;;25.17;;
37527;SDS011;23372;52.050;4.810;2022-12-18T05:55:12;57.23;;;24.40;;
37527;SDS011;23372;52.050;4.810;2022-12-18T05:57:37;57.47;;;23.27;;
37527;SDS011;23372;52.050;4.810;2022-12-18T06:00:03;55.73;;;24.57;;
37527;SDS011;23372;52.050;4.810;2022-12-18T06:02:29;61.90;;;26.80;;
37527;SDS011;23372;52.050;4.810;2022-12-18T06:04:54;57.10;;;24.43;;
37527;SDS011;23372;52.050;4.810;2022-12-18T06:07:20;60.17;;;24.13;;
37527;SDS011;23372;52.050;4.810;2022-12-18T06:09:45;59.13;;;24.93;;
37527;SDS011;23372;52.050;4.810;2022-12-18T06:12:11;57.70;;;23.67;;
37527;SDS011;23372;52.050;4.810;2022-12-18T06:14:36;58.97;;;24.53;;
37527;SDS011;23372;52.050;4.810;2022-12-18T06:17:02;60.83;;;24.77;;
37527;SDS011;23372;52.050;4.810;2022-12-18T06:19:28;57.40;;;23.53;;
37527;SDS011;23372;52.050;4.810;2022-12-18T06:21:53;52.00;;;24.73;;
37527;SDS011;23372;52.050;4.810;2022-12-18T06:24:19;60.83;;;24.23;;
37527;SDS011;23372;52.050;4.810;2022-12-18T06:26:45;51.90;;;22.80;;
37527;SDS011;23372;52.050;4.810;2022-12-18T06:29:10;57.57;;;25.10;;
37527;SDS011;23372;52.050;4.810;2022-12-18T06:31:36;55.57;;;25.00;;
37527;SDS011;23372;52.050;4.810;2022-12-18T06:34:03;59.77;;;26.63;;
37527;SDS011;23372;52.050;4.810;2022-12-18T06:36:29;50.13;;;25.60;;
37527;SDS011;23372;52.050;4.810;2022-12-18T06:38:55;60.50;;;27.33;;
37527;SDS011;23372;52.050;4.810;2022-12-18T06:41:22;58.80;;;28.53;;
37527;SDS011;23372;52.050;4.810;2022-12-18T06:43:47;52.83;;;25.10;;
37527;SDS011;23372;52.050;4.810;2022-12-18T06:46:13;55.50;;;27.17;;
37527;SDS011;23372;52.050;4.810;2022-12-18T06:48:39;60.80;;;28.17;;
37527;SDS011;23372;52.050;4.810;2022-12-18T06:51:05;60.07;;;29.20;;
37527;SDS011;23372;52.050;4.810;2022-12-18T06:53:31;58.97;;;29.07;;
37527;SDS011;23372;52.050;4.810;2022-12-18T06:56:04;62.63;;;30.13;;
37527;SDS011;23372;52.050;4.810;2022-12-18T06:58:32;57.50;;;28.43;;
37527;SDS011;23372;52.050;4.810;2022-12-18T07:01:01;62.33;;;29.30;;
37527;SDS011;23372;52.050;4.810;2022-12-18T07:03:28;56.90;;;29.80;;
37527;SDS011;23372;52.050;4.810;2022-12-18T07:05:54;60.60;;;29.33;;
37527;SDS011;23372;52.050;4.810;2022-12-18T07:08:20;59.77;;;27.90;;
37527;SDS011;23372;52.050;4.810;2022-12-18T07:10:46;58.63;;;28.47;;
37527;SDS011;23372;52.050;4.810;2022-12-18T07:13:11;57.40;;;28.03;;
37527;SDS011;23372;52.050;4.810;2022-12-18T07:15:37;60.67;;;28.93;;
37527;SDS011;23372;52.050;4.810;2022-12-18T07:18:02;56.93;;;27.73;;
37527;SDS011;23372;52.050;4.810;2022-12-18T07:20:28;55.83;;;26.83;;
37527;SDS011;23372;52.050;4.810;2022-12-18T07:22:54;52.20;;;26.73;;
37527;SDS011;23372;52.050;4.810;2022-12-18T07:25:19;59.40;;;27.87;;
37527;SDS011;23372;52.050;4.810;2022-12-18T07:27:45;52.10;;;26.30;;
37527;SDS011;23372;52.050;4.810;2022-12-18T07:30:10;54.63;;;25.67;;
37527;SDS011;23372;52.050;4.810;2022-12-18T07:32:36;50.93;;;24.97;;
37527;SDS011;23372;52.050;4.810;2022-12-18T07:35:02;55.80;;;26.37;;
37527;SDS011;23372;52.050;4.810;2022-12-18T07:37:27;51.17;;;25.60;;
37527;SDS011;23372;52.050;4.810;2022-12-18T07:39:53;53.43;;;25.87;;
37527;SDS011;23372;52.050;4.810;2022-12-18T07:42:19;54.57;;;24.67;;
37527;SDS011;23372;52.050;4.810;2022-12-18T07:44:57;49.83;;;25.87;;
37527;SDS011;23372;52.050;4.810;2022-12-18T07:47:23;51.73;;;25.40;;
37527;SDS011;23372;52.050;4.810;2022-12-18T07:49:49;49.33;;;24.63;;
37527;SDS011;23372;52.050;4.810;2022-12-18T07:52:14;50.73;;;26.63;;
37527;SDS011;23372;52.050;4.810;2022-12-18T07:54:40;48.27;;;23.37;;
37527;SDS011;23372;52.050;4.810;2022-12-18T07:57:07;47.23;;;25.60;;
37527;SDS011;23372;52.050;4.810;2022-12-18T07:59:32;53.00;;;24.27;;
37527;SDS011;23372;52.050;4.810;2022-12-18T08:01:58;43.43;;;20.40;;
37527;SDS011;23372;52.050;4.810;2022-12-18T08:04:24;46.60;;;24.20;;
37527;SDS011;23372;52.050;4.810;2022-12-18T08:06:50;47.80;;;22.47;;
37527;SDS011;23372;52.050;4.810;2022-12-18T08:09:16;39.00;;;20.77;;
37527;SDS011;23372;52.050;4.810;2022-12-18T08:11:41;50.27;;;26.97;;
37527;SDS011;23372;52.050;4.810;2022-12-18T08:14:07;56.10;;;27.83;;
37527;SDS011;23372;52.050;4.810;2022-12-18T08:16:33;39.27;;;21.57;;
37527;SDS011;23372;52.050;4.810;2022-12-18T08:18:59;51.80;;;25.03;;
37527;SDS011;23372;52.050;4.810;2022-12-18T08:21:25;56.53;;;26.87;;
37527;SDS011;23372;52.050;4.810;2022-12-18T08:23:53;54.67;;;26.03;;
37527;SDS011;23372;52.050;4.810;2022-12-18T08:26:21;57.40;;;28.03;;
37527;SDS011;23372;52.050;4.810;2022-12-18T08:28:47;49.87;;;25.63;;
37527;SDS011;23372;52.050;4.810;2022-12-18T08:31:13;49.53;;;25.27;;
37527;SDS011;23372;52.050;4.810;2022-12-18T08:33:39;45.33;;;23.73;;
37527;SDS011;23372;52.050;4.810;2022-12-18T08:36:05;45.77;;;24.27;;
37527;SDS011;23372;52.050;4.810;2022-12-18T08:38:34;46.93;;;23.13;;
37527;SDS011;23372;52.050;4.810;2022-12-18T08:41:00;48.97;;;23.60;;
37527;SDS011;23372;52.050;4.810;2022-12-18T08:43:27;39.97;;;20.83;;
37527;SDS011;23372;52.050;4.810;2022-12-18T08:46:11;42.70;;;20.93;;
37527;SDS011;23372;52.050;4.810;2022-12-18T08:48:40;43.67;;;23.43;;
37527;SDS011;23372;52.050;4.810;2022-12-18T08:51:05;35.30;;;18.30;;
37527;SDS011;23372;52.050;4.810;2022-12-18T08:53:31;43.20;;;22.53;;
37527;SDS011;23372;52.050;4.810;2022-12-18T08:55:57;43.20;;;21.33;;
37527;SDS011;23372;52.050;4.810;2022-12-18T08:58:23;32.57;;;16.47;;
37527;SDS011;23372;52.050;4.810;2022-12-18T09:00:48;28.60;;;17.23;;
37527;SDS011;23372;52.050;4.810;2022-12-18T09:03:15;42.33;;;21.90;;
37527;SDS011;23372;52.050;4.810;2022-12-18T09:05:42;41.00;;;22.03;;
37527;SDS011;23372;52.050;4.810;2022-12-18T09:08:07;39.87;;;20.90;;
37527;SDS011;23372;52.050;4.810;2022-12-18T09:10:33;43.83;;;21.03;;
37527;SDS011;23372;52.050;4.810;2022-12-18T09:12:59;33.33;;;17.10;;
37527;SDS011;23372;52.050;4.810;2022-12-18T09:15:25;36.27;;;20.77;;
37527;SDS011;23372;52.050;4.810;2022-12-18T09:17:51;44.20;;;22.37;;
37527;SDS011;23372;52.050;4.810;2022-12-18T09:20:17;38.00;;;19.57;;
37527;SDS011;23372;52.050;4.810;2022-12-18T09:22:44;44.90;;;23.87;;
37527;SDS011;23372;52.050;4.810;2022-12-18T09:25:09;34.83;;;20.67;;
37527;SDS011;23372;52.050;4.810;2022-12-18T09:27:35;41.40;;;21.83;;
37527;SDS011;23372;52.050;4.810;2022-12-18T09:30:01;42.57;;;20.73;;
37527;SDS011;23372;52.050;4.810;2022-12-18T09:32:27;44.33;;;21.13;;
37527;SDS011;23372;52.050;4.810;2022-12-18T09:34:52;45.53;;;22.10;;
37527;SDS011;23372;52.050;4.810;2022-12-18T09:37:18;39.93;;;21.97;;
37527;SDS011;23372;52.050;4.810;2022-12-18T09:39:43;42.47;;;22.50;;
37527;SDS011;23372;52.050;4.810;2022-12-18T09:42:12;41.40;;;21.57;;
37527;SDS011;23372;52.050;4.810;2022-12-18T09:44:48;42.93;;;21.63;;
37527;SDS011;23372;52.050;4.810;2022-12-18T09:47:17;42.57;;;21.60;;
37527;SDS011;23372;52.050;4.810;2022-12-18T09:49:45;38.30;;;20.20;;
37527;SDS011;23372;52.050;4.810;2022-12-18T09:52:24;43.20;;;21.97;;
37527;SDS011;23372;52.050;4.810;2022-12-18T09:55:01;44.57;;;22.63;;
37527;SDS011;23372;52.050;4.810;2022-12-18T09:57:35;41.07;;;22.00;;
37527;SDS011;23372;52.050;4.810;2022-12-18T10:02:47;44.87;;;23.03;;
37527;SDS011;23372;52.050;4.810;2022-12-18T10:05:15;34.97;;;20.27;;
37527;SDS011;23372;52.050;4.810;2022-12-18T10:08:05;45.53;;;23.40;;
37527;SDS011;23372;52.050;4.810;2022-12-18T10:10:51;42.70;;;21.03;;
37527;SDS011;23372;52.050;4.810;2022-12-18T10:13:21;39.67;;;23.17;;
37527;SDS011;23372;52.050;4.810;2022-12-18T10:18:56;39.10;;;22.27;;
37527;SDS011;23372;52.050;4.810;2022-12-18T10:27:24;41.87;;;22.13;;
37527;SDS011;23372;52.050;4.810;2022-12-18T10:29:51;44.77;;;22.33;;
37527;SDS011;23372;52.050;4.810;2022-12-18T10:32:19;34.03;;;21.00;;
37527;SDS011;23372;52.050;4.810;2022-12-18T10:34:50;40.70;;;20.83;;
37527;SDS011;23372;52.050;4.810;2022-12-18T10:37:19;40.27;;;20.90;;
37527;SDS011;23372;52.050;4.810;2022-12-18T10:39:47;40.80;;;21.63;;
37527;SDS011;23372;52.050;4.810;2022-12-18T10:42:33;42.87;;;22.17;;
37527;SDS011;23372;52.050;4.810;2022-12-18T10:45:09;38.23;;;20.97;;
37527;SDS011;23372;52.050;4.810;2022-12-18T10:47:41;38.47;;;20.43;;
37527;SDS011;23372;52.050;4.810;2022-12-18T10:50:17;41.90;;;20.70;;
37527;SDS011;23372;52.050;4.810;2022-12-18T10:53:04;38.83;;;21.53;;
37527;SDS011;23372;52.050;4.810;2022-12-18T10:55:39;42.23;;;20.90;;
37527;SDS011;23372;52.050;4.810;2022-12-18T10:58:16;39.93;;;20.20;;
37527;SDS011;23372;52.050;4.810;2022-12-18T11:03:40;38.43;;;21.17;;
37527;SDS011;23372;52.050;4.810;2022-12-18T11:06:33;39.03;;;19.53;;
37527;SDS011;23372;52.050;4.810;2022-12-18T11:09:03;40.83;;;21.90;;
37527;SDS011;23372;52.050;4.810;2022-12-18T11:11:31;41.33;;;21.33;;
37527;SDS011;23372;52.050;4.810;2022-12-18T11:13:59;37.77;;;20.67;;
37527;SDS011;23372;52.050;4.810;2022-12-18T11:16:28;38.93;;;21.47;;
37527;SDS011;23372;52.050;4.810;2022-12-18T11:21:49;35.30;;;19.43;;
37527;SDS011;23372;52.050;4.810;2022-12-18T11:24:32;34.27;;;18.77;;
37527;SDS011;23372;52.050;4.810;2022-12-18T11:27:00;36.20;;;22.07;;
37527;SDS011;23372;52.050;4.810;2022-12-18T11:29:32;37.33;;;19.57;;
37527;SDS011;23372;52.050;4.810;2022-12-18T11:34:44;40.77;;;19.50;;
37527;SDS011;23372;52.050;4.810;2022-12-18T11:37:13;36.33;;;18.57;;
37527;SDS011;23372;52.050;4.810;2022-12-18T11:39:57;33.17;;;18.37;;
37527;SDS011;23372;52.050;4.810;2022-12-18T11:42:32;33.53;;;17.47;;
37527;SDS011;23372;52.050;4.810;2022-12-18T11:50:46;32.40;;;17.97;;
37527;SDS011;23372;52.050;4.810;2022-12-18T11:53:16;32.07;;;17.70;;
37527;SDS011;23372;52.050;4.810;2022-12-18T12:01:59;34.03;;;17.93;;
37527;SDS011;23372;52.050;4.810;2022-12-18T12:07:26;34.03;;;18.33;;
37527;SDS011;23372;52.050;4.810;2022-12-18T12:21:34;30.23;;;17.87;;
37527;SDS011;23372;52.050;4.810;2022-12-18T12:24:26;37.17;;;19.33;;
37527;SDS011;23372;52.050;4.810;2022-12-18T12:29:56;36.43;;;18.77;;
37527;SDS011;23372;52.050;4.810;2022-12-18T12:41:12;34.77;;;18.93;;
37527;SDS011;23372;52.050;4.810;2022-12-18T12:43:59;35.40;;;20.07;;
37527;SDS011;23372;52.050;4.810;2022-12-18T12:46:29;36.70;;;19.33;;
37527;SDS011;23372;52.050;4.810;2022-12-18T12:49:00;34.00;;;18.40;;
37527;SDS011;23372;52.050;4.810;2022-12-18T12:51:33;35.73;;;18.87;;
37527;SDS011;23372;52.050;4.810;2022-12-18T12:54:02;38.07;;;20.13;;
37527;SDS011;23372;52.050;4.810;2022-12-18T13:02:14;37.63;;;21.10;;
37527;SDS011;23372;52.050;4.810;2022-12-18T13:04:57;37.73;;;19.73;;
37527;SDS011;23372;52.050;4.810;2022-12-18T13:20:37;33.10;;;18.27;;
37527;SDS011;23372;52.050;4.810;2022-12-18T13:25:48;33.33;;;18.37;;
37527;SDS011;23372;52.050;4.810;2022-12-18T13:28:15;36.47;;;20.33;;
37527;SDS011;23372;52.050;4.810;2022-12-18T13:30:42;35.40;;;19.17;;
37527;SDS011;23372;52.050;4.810;2022-12-18T13:41:01;34.47;;;19.07;;
37527;SDS011;23372;52.050;4.810;2022-12-18T13:43:50;37.63;;;21.90;;
37527;SDS011;23372;52.050;4.810;2022-12-18T13:46:25;30.67;;;19.30;;
37527;SDS011;23372;52.050;4.810;2022-12-18T13:51:42;31.37;;;18.70;;
37527;SDS011;23372;52.050;4.810;2022-12-18T13:54:18;37.30;;;19.57;;
37527;SDS011;23372;52.050;4.810;2022-12-18T13:56:45;39.00;;;21.47;;
37527;SDS011;23372;52.050;4.810;2022-12-18T13:59:16;33.30;;;18.77;;
37527;SDS011;23372;52.050;4.810;2022-12-18T14:01:46;35.17;;;18.70;;
37527;SDS011;23372;52.050;4.810;2022-12-18T14:06:55;34.83;;;19.93;;
37527;SDS011;23372;52.050;4.810;2022-12-18T14:09:30;33.70;;;18.30;;
37527;SDS011;23372;52.050;4.810;2022-12-18T14:12:02;37.77;;;18.17;;
37527;SDS011;23372;52.050;4.810;2022-12-18T14:15:03;38.60;;;20.57;;
37527;SDS011;23372;52.050;4.810;2022-12-18T14:17:35;39.33;;;20.00;;
37527;SDS011;23372;52.050;4.810;2022-12-18T14:20:01;35.73;;;18.53;;
37527;SDS011;23372;52.050;4.810;2022-12-18T14:22:27;34.37;;;19.10;;
37527;SDS011;23372;52.050;4.810;2022-12-18T14:25:06;35.47;;;19.13;;
37527;SDS011;23372;52.050;4.810;2022-12-18T14:27:42;40.27;;;20.73;;
37527;SDS011;23372;52.050;4.810;2022-12-18T14:30:23;35.93;;;19.90;;
37527;SDS011;23372;52.050;4.810;2022-12-18T14:33:02;39.50;;;20.93;;
37527;SDS011;23372;52.050;4.810;2022-12-18T14:35:35;34.13;;;18.47;;
37527;SDS011;23372;52.050;4.810;2022-12-18T14:38:22;36.53;;;19.93;;
37527;SDS011;23372;52.050;4.810;2022-12-18T14:43:37;34.77;;;19.57;;
37527;SDS011;23372;52.050;4.810;2022-12-18T14:46:05;31.83;;;19.53;;
37527;SDS011;23372;52.050;4.810;2022-12-18T14:48:50;33.13;;;17.63;;
37527;SDS011;23372;52.050;4.810;2022-12-18T14:51:29;32.63;;;18.33;;
37527;SDS011;23372;52.050;4.810;2022-12-18T14:59:02;36.97;;;18.60;;
37527;SDS011;23372;52.050;4.810;2022-12-18T15:04:02;40.80;;;18.67;;
37527;SDS011;23372;52.050;4.810;2022-12-18T15:06:30;38.80;;;21.00;;
37527;SDS011;23372;52.050;4.810;2022-12-18T15:09:02;38.23;;;18.97;;
37527;SDS011;23372;52.050;4.810;2022-12-18T15:11:34;35.20;;;20.43;;
37527;SDS011;23372;52.050;4.810;2022-12-18T15:17:21;38.70;;;20.53;;
37527;SDS011;23372;52.050;4.810;2022-12-18T15:19:48;36.13;;;18.50;;
37527;SDS011;23372;52.050;4.810;2022-12-18T15:24:54;34.33;;;19.20;;
37527;SDS011;23372;52.050;4.810;2022-12-18T15:27:26;33.07;;;19.77;;
37527;SDS011;23372;52.050;4.810;2022-12-18T15:32:32;33.07;;;15.07;;
37527;SDS011;23372;52.050;4.810;2022-12-18T15:37:43;30.27;;;16.53;;
37527;SDS011;23372;52.050;4.810;2022-12-18T15:40:13;39.43;;;20.23;;
37527;SDS011;23372;52.050;4.810;2022-12-18T15:42:40;33.80;;;18.13;;
37527;SDS011;23372;52.050;4.810;2022-12-18T15:45:24;33.30;;;16.87;;
37527;SDS011;23372;52.050;4.810;2022-12-18T15:47:50;34.43;;;21.03;;
37527;SDS011;23372;52.050;4.810;2022-12-18T15:50:16;35.03;;;19.43;;
37527;SDS011;23372;52.050;4.810;2022-12-18T15:52:42;37.90;;;19.77;;
37527;SDS011;23372;52.050;4.810;2022-12-18T15:55:14;33.33;;;16.57;;
37527;SDS011;23372;52.050;4.810;2022-12-18T15:58:06;29.80;;;17.83;;
37527;SDS011;23372;52.050;4.810;2022-12-18T16:00:34;36.67;;;19.30;;
37527;SDS011;23372;52.050;4.810;2022-12-18T16:03:01;34.47;;;19.73;;
37527;SDS011;23372;52.050;4.810;2022-12-18T16:05:27;34.60;;;17.90;;
37527;SDS011;23372;52.050;4.810;2022-12-18T16:07:53;31.87;;;17.03;;
37527;SDS011;23372;52.050;4.810;2022-12-18T16:10:19;34.17;;;17.63;;
37527;SDS011;23372;52.050;4.810;2022-12-18T16:12:45;34.03;;;19.13;;
37527;SDS011;23372;52.050;4.810;2022-12-18T16:15:14;33.27;;;18.40;;
37527;SDS011;23372;52.050;4.810;2022-12-18T16:17:41;32.03;;;16.97;;
37527;SDS011;23372;52.050;4.810;2022-12-18T16:20:14;33.33;;;17.57;;
37527;SDS011;23372;52.050;4.810;2022-12-18T16:22:42;31.27;;;16.23;;
37527;SDS011;23372;52.050;4.810;2022-12-18T16:25:33;34.93;;;16.80;;
37527;SDS011;23372;52.050;4.810;2022-12-18T16:27:58;33.40;;;18.40;;
37527;SDS011;23372;52.050;4.810;2022-12-18T16:30:24;29.67;;;17.17;;
37527;SDS011;23372;52.050;4.810;2022-12-18T16:32:53;38.07;;;18.37;;
37527;SDS011;23372;52.050;4.810;2022-12-18T16:35:19;36.10;;;20.33;;
37527;SDS011;23372;52.050;4.810;2022-12-18T16:37:45;35.37;;;17.23;;
37527;SDS011;23372;52.050;4.810;2022-12-18T16:40:12;30.43;;;17.40;;
37527;SDS011;23372;52.050;4.810;2022-12-18T16:42:40;38.03;;;19.13;;
37527;SDS011;23372;52.050;4.810;2022-12-18T16:45:07;37.70;;;18.63;;